sensor_id;sensor_type;location;lat;lon;timestamp;P1;durP1;ratioP1;P2;durP2;ratioP2
44026;SDS011;29696;55.698;37.460;2023-02-15T00:01:54;2.37;;;1.50;;
44026;SDS011;29696;55.698;37.460;2023-02-15T00:04:22;4.97;;;1.40;;
44026;SDS011;29696;55.698;37.460;2023-02-15T00:06:50;3.30;;;1.50;;
44026;SDS011;29696;55.698;37.460;2023-02-15T00:09:16;3.10;;;1.47;;
44026;SDS011;29696;55.698;37.460;2023-02-15T00:11:42;2.27;;;1.43;;
44026;SDS011;29696;55.698;37.460;2023-02-15T00:14:18;3.57;;;1.40;;
44026;SDS011;29696;55.698;37.460;2023-02-15T00:16:46;1.77;;;1.40;;
44026;SDS011;29696;55.698;37.460;2023-02-15T00:19:14;7.73;;;3.33;;
44026;SDS011;29696;55.698;37.460;2023-02-15T00:21:45;3.93;;;1.30;;
44026;SDS011;29696;55.698;37.460;2023-02-15T00:24:13;1.67;;;1.20;;
44026;SDS011;29696;55.698;37.460;2023-02-15T00:26:41;2.67;;;1.23;;
44026;SDS011;29696;55.698;37.460;2023-02-15T00:29:09;4.17;;;1.93;;
44026;SDS011;29696;55.698;37.460;2023-02-15T00:31:36;3.30;;;1.93;;
44026;SDS011;29696;55.698;37.460;2023-02-15T00:34:04;2.10;;;1.33;;
44026;SDS011;29696;55.698;37.460;2023-02-15T00:36:37;7.33;;;1.97;;
44026;SDS011;29696;55.698;37.460;2023-02-15T00:39:03;1.47;;;1.33;;
44026;SDS011;29696;55.698;37.460;2023-02-15T00:41:31;2.20;;;1.83;;
44026;SDS011;29696;55.698;37.460;2023-02-15T00:43:58;2.67;;;1.40;;
44026;SDS011;29696;55.698;37.460;2023-02-15T00:46:24;1.93;;;1.57;;
44026;SDS011;29696;55.698;37.460;2023-02-15T00:48:51;3.03;;;2.03;;
44026;SDS011;29696;55.698;37.460;2023-02-15T00:51:17;4.70;;;1.43;;
44026;SDS011;29696;55.698;37.460;2023-02-15T00:53:43;3.60;;;1.70;;
44026;SDS011;29696;55.698;37.460;2023-02-15T00:56:10;3.57;;;1.47;;
44026;SDS011;29696;55.698;37.460;2023-02-15T00:58:37;2.23;;;1.30;;
44026;SDS011;29696;55.698;37.460;2023-02-15T01:01:08;5.67;;;2.17;;
44026;SDS011;29696;55.698;37.460;2023-02-15T01:03:37;2.70;;;1.57;;
44026;SDS011;29696;55.698;37.460;2023-02-15T01:06:03;3.83;;;1.37;;
44026;SDS011;29696;55.698;37.460;2023-02-15T01:08:30;2.33;;;1.93;;
44026;SDS011;29696;55.698;37.460;2023-02-15T01:10:57;1.70;;;1.40;;
44026;SDS011;29696;55.698;37.460;2023-02-15T01:13:40;1.10;;;1.00;;
44026;SDS011;29696;55.698;37.460;2023-02-15T01:16:06;9.00;;;2.43;;
44026;SDS011;29696;55.698;37.460;2023-02-15T01:18:33;3.70;;;2.30;;
44026;SDS011;29696;55.698;37.460;2023-02-15T01:21:00;3.00;;;2.43;;
44026;SDS011;29696;55.698;37.460;2023-02-15T01:23:36;4.47;;;2.10;;
44026;SDS011;29696;55.698;37.460;2023-02-15T01:26:03;4.00;;;1.50;;
44026;SDS011;29696;55.698;37.460;2023-02-15T01:28:29;3.13;;;2.03;;
44026;SDS011;29696;55.698;37.460;2023-02-15T01:30:57;5.87;;;2.47;;
44026;SDS011;29696;55.698;37.460;2023-02-15T01:33:23;3.83;;;1.50;;
44026;SDS011;29696;55.698;37.460;2023-02-15T01:35:55;4.10;;;2.20;;
44026;SDS011;29696;55.698;37.460;2023-02-15T01:38:22;4.67;;;1.63;;
44026;SDS011;29696;55.698;37.460;2023-02-15T01:40:51;6.00;;;2.13;;
44026;SDS011;29696;55.698;37.460;2023-02-15T01:43:19;2.23;;;1.57;;
44026;SDS011;29696;55.698;37.460;2023-02-15T01:45:46;2.43;;;1.53;;
44026;SDS011;29696;55.698;37.460;2023-02-15T01:48:22;6.77;;;1.50;;
44026;SDS011;29696;55.698;37.460;2023-02-15T01:50:54;2.00;;;1.70;;
44026;SDS011;29696;55.698;37.460;2023-02-15T01:56:21;1.88;;;1.40;;
44026;SDS011;29696;55.698;37.460;2023-02-15T01:58:54;5.57;;;2.00;;
44026;SDS011;29696;55.698;37.460;2023-02-15T02:01:24;4.00;;;1.30;;
44026;SDS011;29696;55.698;37.460;2023-02-15T02:04:07;5.03;;;1.73;;
44026;SDS011;29696;55.698;37.460;2023-02-15T02:06:55;4.70;;;2.23;;
44026;SDS011;29696;55.698;37.460;2023-02-15T02:09:23;4.03;;;2.73;;
44026;SDS011;29696;55.698;37.460;2023-02-15T02:11:50;4.57;;;1.40;;
44026;SDS011;29696;55.698;37.460;2023-02-15T02:14:17;5.13;;;1.60;;
44026;SDS011;29696;55.698;37.460;2023-02-15T02:32:22;3.23;;;2.07;;
44026;SDS011;29696;55.698;37.460;2023-02-15T02:35:24;2.80;;;1.43;;
44026;SDS011;29696;55.698;37.460;2023-02-15T02:41:32;2.27;;;1.77;;
44026;SDS011;29696;55.698;37.460;2023-02-15T02:50:13;2.60;;;1.87;;
44026;SDS011;29696;55.698;37.460;2023-02-15T02:52:43;1.80;;;1.53;;
44026;SDS011;29696;55.698;37.460;2023-02-15T02:58:03;4.33;;;2.23;;
44026;SDS011;29696;55.698;37.460;2023-02-15T03:00:37;5.37;;;1.83;;
44026;SDS011;29696;55.698;37.460;2023-02-15T03:03:11;4.65;;;3.00;;
44026;SDS011;29696;55.698;37.460;2023-02-15T03:05:44;1.90;;;1.67;;
44026;SDS011;29696;55.698;37.460;2023-02-15T03:08:14;11.07;;;4.43;;
44026;SDS011;29696;55.698;37.460;2023-02-15T03:10:51;4.13;;;1.75;;
44026;SDS011;29696;55.698;37.460;2023-02-15T03:13:20;8.83;;;2.73;;
44026;SDS011;29696;55.698;37.460;2023-02-15T03:15:48;10.73;;;2.47;;
44026;SDS011;29696;55.698;37.460;2023-02-15T03:18:36;4.87;;;1.93;;
44026;SDS011;29696;55.698;37.460;2023-02-15T03:21:08;4.00;;;2.40;;
44026;SDS011;29696;55.698;37.460;2023-02-15T03:23:50;3.07;;;1.93;;
44026;SDS011;29696;55.698;37.460;2023-02-15T03:26:20;4.90;;;2.10;;
44026;SDS011;29696;55.698;37.460;2023-02-15T03:28:50;4.17;;;1.93;;
44026;SDS011;29696;55.698;37.460;2023-02-15T03:31:21;18.03;;;2.43;;
44026;SDS011;29696;55.698;37.460;2023-02-15T03:33:55;5.70;;;2.93;;
44026;SDS011;29696;55.698;37.460;2023-02-15T03:36:29;2.87;;;2.10;;
44026;SDS011;29696;55.698;37.460;2023-02-15T03:42:17;11.83;;;3.60;;
44026;SDS011;29696;55.698;37.460;2023-02-15T03:44:59;2.50;;;1.53;;
44026;SDS011;29696;55.698;37.460;2023-02-15T03:47:41;2.47;;;1.83;;
44026;SDS011;29696;55.698;37.460;2023-02-15T03:50:15;5.03;;;1.77;;
44026;SDS011;29696;55.698;37.460;2023-02-15T03:53:21;4.57;;;2.60;;
44026;SDS011;29696;55.698;37.460;2023-02-15T03:55:49;3.87;;;2.10;;
44026;SDS011;29696;55.698;37.460;2023-02-15T03:58:19;6.47;;;2.20;;
44026;SDS011;29696;55.698;37.460;2023-02-15T04:01:05;5.75;;;1.90;;
44026;SDS011;29696;55.698;37.460;2023-02-15T04:04:00;6.53;;;1.73;;
44026;SDS011;29696;55.698;37.460;2023-02-15T04:06:31;4.27;;;2.90;;
44026;SDS011;29696;55.698;37.460;2023-02-15T04:08:57;8.27;;;3.30;;
44026;SDS011;29696;55.698;37.460;2023-02-15T04:11:42;4.68;;;1.52;;
44026;SDS011;29696;55.698;37.460;2023-02-15T04:14:08;6.37;;;1.90;;
44026;SDS011;29696;55.698;37.460;2023-02-15T04:16:53;7.80;;;3.28;;
44026;SDS011;29696;55.698;37.460;2023-02-15T04:19:19;4.27;;;1.83;;
44026;SDS011;29696;55.698;37.460;2023-02-15T04:22:04;6.22;;;3.17;;
44026;SDS011;29696;55.698;37.460;2023-02-15T04:24:49;3.00;;;1.92;;
44026;SDS011;29696;55.698;37.460;2023-02-15T04:27:34;4.15;;;2.53;;
44026;SDS011;29696;55.698;37.460;2023-02-15T04:30:01;5.27;;;2.03;;
44026;SDS011;29696;55.698;37.460;2023-02-15T04:32:29;3.93;;;2.13;;
44026;SDS011;29696;55.698;37.460;2023-02-15T04:34:56;2.97;;;1.50;;
44026;SDS011;29696;55.698;37.460;2023-02-15T04:37:22;3.53;;;1.93;;
44026;SDS011;29696;55.698;37.460;2023-02-15T04:39:48;5.83;;;1.97;;
44026;SDS011;29696;55.698;37.460;2023-02-15T04:42:15;2.50;;;2.03;;
44026;SDS011;29696;55.698;37.460;2023-02-15T04:44:42;6.77;;;1.80;;
44026;SDS011;29696;55.698;37.460;2023-02-15T04:47:08;3.53;;;2.43;;
44026;SDS011;29696;55.698;37.460;2023-02-15T04:49:35;3.83;;;1.93;;
44026;SDS011;29696;55.698;37.460;2023-02-15T04:52:01;8.83;;;2.43;;
44026;SDS011;29696;55.698;37.460;2023-02-15T04:54:27;11.43;;;3.77;;
44026;SDS011;29696;55.698;37.460;2023-02-15T04:56:54;3.23;;;2.93;;
44026;SDS011;29696;55.698;37.460;2023-02-15T04:59:20;9.30;;;2.47;;
44026;SDS011;29696;55.698;37.460;2023-02-15T05:01:46;4.10;;;1.97;;
44026;SDS011;29696;55.698;37.460;2023-02-15T05:04:13;14.27;;;2.17;;
44026;SDS011;29696;55.698;37.460;2023-02-15T05:06:39;3.43;;;1.70;;
44026;SDS011;29696;55.698;37.460;2023-02-15T05:09:05;3.33;;;1.87;;
44026;SDS011;29696;55.698;37.460;2023-02-15T05:11:31;4.53;;;1.90;;
44026;SDS011;29696;55.698;37.460;2023-02-15T05:13:58;3.80;;;2.23;;
44026;SDS011;29696;55.698;37.460;2023-02-15T05:16:24;8.13;;;2.17;;
44026;SDS011;29696;55.698;37.460;2023-02-15T05:18:51;2.77;;;2.10;;
44026;SDS011;29696;55.698;37.460;2023-02-15T05:21:17;1.90;;;1.70;;
44026;SDS011;29696;55.698;37.460;2023-02-15T05:23:43;3.80;;;2.07;;
44026;SDS011;29696;55.698;37.460;2023-02-15T05:26:11;6.57;;;2.53;;
44026;SDS011;29696;55.698;37.460;2023-02-15T05:28:56;8.20;;;2.07;;
44026;SDS011;29696;55.698;37.460;2023-02-15T05:31:23;4.33;;;1.90;;
44026;SDS011;29696;55.698;37.460;2023-02-15T05:33:49;6.80;;;3.40;;
44026;SDS011;29696;55.698;37.460;2023-02-15T05:36:15;3.27;;;2.33;;
44026;SDS011;29696;55.698;37.460;2023-02-15T05:38:42;2.80;;;1.90;;
44026;SDS011;29696;55.698;37.460;2023-02-15T05:41:09;3.77;;;1.90;;
44026;SDS011;29696;55.698;37.460;2023-02-15T05:43:36;4.97;;;3.70;;
44026;SDS011;29696;55.698;37.460;2023-02-15T05:46:03;3.87;;;2.53;;
44026;SDS011;29696;55.698;37.460;2023-02-15T05:48:31;4.57;;;1.80;;
44026;SDS011;29696;55.698;37.460;2023-02-15T05:53:44;5.27;;;2.43;;
44026;SDS011;29696;55.698;37.460;2023-02-15T05:56:11;9.50;;;3.30;;
44026;SDS011;29696;55.698;37.460;2023-02-15T05:58:38;3.80;;;2.60;;
44026;SDS011;29696;55.698;37.460;2023-02-15T06:01:09;3.17;;;2.33;;
44026;SDS011;29696;55.698;37.460;2023-02-15T06:03:37;3.47;;;2.57;;
44026;SDS011;29696;55.698;37.460;2023-02-15T06:06:03;4.60;;;2.60;;
44026;SDS011;29696;55.698;37.460;2023-02-15T06:08:33;6.13;;;2.83;;
44026;SDS011;29696;55.698;37.460;2023-02-15T06:11:01;5.73;;;2.57;;
44026;SDS011;29696;55.698;37.460;2023-02-15T06:13:27;5.63;;;3.00;;
44026;SDS011;29696;55.698;37.460;2023-02-15T06:15:54;5.53;;;2.60;;
44026;SDS011;29696;55.698;37.460;2023-02-15T06:18:21;9.53;;;2.73;;
44026;SDS011;29696;55.698;37.460;2023-02-15T06:20:47;6.87;;;3.30;;
44026;SDS011;29696;55.698;37.460;2023-02-15T06:23:14;5.87;;;3.07;;
44026;SDS011;29696;55.698;37.460;2023-02-15T06:25:41;6.73;;;3.43;;
44026;SDS011;29696;55.698;37.460;2023-02-15T06:28:08;6.10;;;2.90;;
44026;SDS011;29696;55.698;37.460;2023-02-15T06:30:34;3.30;;;2.47;;
44026;SDS011;29696;55.698;37.460;2023-02-15T06:33:00;6.47;;;3.33;;
44026;SDS011;29696;55.698;37.460;2023-02-15T06:35:26;6.93;;;2.80;;
44026;SDS011;29696;55.698;37.460;2023-02-15T06:37:53;5.37;;;3.10;;
44026;SDS011;29696;55.698;37.460;2023-02-15T06:40:19;9.10;;;2.90;;
44026;SDS011;29696;55.698;37.460;2023-02-15T06:42:45;5.03;;;2.90;;
44026;SDS011;29696;55.698;37.460;2023-02-15T06:45:12;7.47;;;4.23;;
44026;SDS011;29696;55.698;37.460;2023-02-15T06:47:39;10.60;;;3.00;;
44026;SDS011;29696;55.698;37.460;2023-02-15T06:50:05;5.73;;;3.67;;
44026;SDS011;29696;55.698;37.460;2023-02-15T06:52:33;8.70;;;3.17;;
44026;SDS011;29696;55.698;37.460;2023-02-15T06:54:59;4.10;;;2.47;;
44026;SDS011;29696;55.698;37.460;2023-02-15T06:57:25;5.17;;;3.83;;
44026;SDS011;29696;55.698;37.460;2023-02-15T06:59:52;8.10;;;3.10;;
44026;SDS011;29696;55.698;37.460;2023-02-15T07:02:18;4.50;;;2.67;;
44026;SDS011;29696;55.698;37.460;2023-02-15T07:04:44;5.80;;;3.50;;
44026;SDS011;29696;55.698;37.460;2023-02-15T07:07:11;5.07;;;3.23;;
44026;SDS011;29696;55.698;37.460;2023-02-15T07:09:38;4.53;;;2.80;;
44026;SDS011;29696;55.698;37.460;2023-02-15T07:12:05;4.13;;;3.17;;
44026;SDS011;29696;55.698;37.460;2023-02-15T07:17:16;5.07;;;3.03;;
44026;SDS011;29696;55.698;37.460;2023-02-15T07:19:43;8.77;;;3.10;;
44026;SDS011;29696;55.698;37.460;2023-02-15T07:22:09;13.67;;;2.83;;
44026;SDS011;29696;55.698;37.460;2023-02-15T07:24:36;2.90;;;2.17;;
44026;SDS011;29696;55.698;37.460;2023-02-15T07:27:02;3.97;;;2.73;;
44026;SDS011;29696;55.698;37.460;2023-02-15T07:29:28;5.33;;;2.40;;
44026;SDS011;29696;55.698;37.460;2023-02-15T07:31:55;3.60;;;3.20;;
44026;SDS011;29696;55.698;37.460;2023-02-15T07:34:21;5.33;;;2.67;;
44026;SDS011;29696;55.698;37.460;2023-02-15T07:36:50;4.43;;;2.67;;
44026;SDS011;29696;55.698;37.460;2023-02-15T07:39:16;6.03;;;2.60;;
44026;SDS011;29696;55.698;37.460;2023-02-15T07:41:43;4.63;;;2.90;;
44026;SDS011;29696;55.698;37.460;2023-02-15T07:44:12;6.33;;;3.10;;
44026;SDS011;29696;55.698;37.460;2023-02-15T07:46:39;6.57;;;3.17;;
44026;SDS011;29696;55.698;37.460;2023-02-15T07:49:05;13.30;;;3.77;;
44026;SDS011;29696;55.698;37.460;2023-02-15T07:51:32;3.73;;;3.33;;
44026;SDS011;29696;55.698;37.460;2023-02-15T07:53:58;5.97;;;2.83;;
44026;SDS011;29696;55.698;37.460;2023-02-15T07:56:24;4.23;;;3.00;;
44026;SDS011;29696;55.698;37.460;2023-02-15T07:58:51;5.90;;;3.43;;
44026;SDS011;29696;55.698;37.460;2023-02-15T08:01:18;8.77;;;3.40;;
44026;SDS011;29696;55.698;37.460;2023-02-15T08:03:46;6.67;;;3.23;;
44026;SDS011;29696;55.698;37.460;2023-02-15T08:06:12;8.97;;;3.37;;
44026;SDS011;29696;55.698;37.460;2023-02-15T08:08:39;5.43;;;3.30;;
44026;SDS011;29696;55.698;37.460;2023-02-15T08:11:28;10.30;;;5.17;;
44026;SDS011;29696;55.698;37.460;2023-02-15T08:13:56;10.70;;;2.97;;
44026;SDS011;29696;55.698;37.460;2023-02-15T08:19:17;8.30;;;4.63;;
44026;SDS011;29696;55.698;37.460;2023-02-15T08:22:13;4.43;;;2.93;;
44026;SDS011;29696;55.698;37.460;2023-02-15T08:24:40;6.60;;;3.87;;
44026;SDS011;29696;55.698;37.460;2023-02-15T08:27:08;8.43;;;3.47;;
44026;SDS011;29696;55.698;37.460;2023-02-15T08:29:36;4.50;;;2.73;;
44026;SDS011;29696;55.698;37.460;2023-02-15T08:32:04;8.67;;;3.97;;
44026;SDS011;29696;55.698;37.460;2023-02-15T08:34:36;10.57;;;3.03;;
44026;SDS011;29696;55.698;37.460;2023-02-15T08:37:06;6.40;;;3.23;;
44026;SDS011;29696;55.698;37.460;2023-02-15T08:39:32;3.57;;;2.47;;
44026;SDS011;29696;55.698;37.460;2023-02-15T08:41:59;9.07;;;2.60;;
44026;SDS011;29696;55.698;37.460;2023-02-15T08:44:25;4.70;;;2.67;;
44026;SDS011;29696;55.698;37.460;2023-02-15T08:46:51;6.60;;;2.53;;
44026;SDS011;29696;55.698;37.460;2023-02-15T08:49:19;6.67;;;3.23;;
44026;SDS011;29696;55.698;37.460;2023-02-15T08:51:47;5.77;;;2.40;;
44026;SDS011;29696;55.698;37.460;2023-02-15T08:54:16;7.57;;;2.70;;
44026;SDS011;29696;55.698;37.460;2023-02-15T08:56:44;5.10;;;2.70;;
44026;SDS011;29696;55.698;37.460;2023-02-15T08:59:12;5.70;;;2.97;;
44026;SDS011;29696;55.698;37.460;2023-02-15T09:01:47;4.30;;;3.30;;
44026;SDS011;29696;55.698;37.460;2023-02-15T09:04:14;3.57;;;2.60;;
44026;SDS011;29696;55.698;37.460;2023-02-15T09:06:41;4.37;;;2.80;;
44026;SDS011;29696;55.698;37.460;2023-02-15T09:09:10;4.47;;;2.53;;
44026;SDS011;29696;55.698;37.460;2023-02-15T09:11:38;5.97;;;3.90;;
44026;SDS011;29696;55.698;37.460;2023-02-15T09:14:24;3.30;;;2.50;;
44026;SDS011;29696;55.698;37.460;2023-02-15T09:16:52;3.27;;;2.77;;
44026;SDS011;29696;55.698;37.460;2023-02-15T09:19:20;5.57;;;3.00;;
44026;SDS011;29696;55.698;37.460;2023-02-15T09:21:48;3.17;;;2.87;;
44026;SDS011;29696;55.698;37.460;2023-02-15T09:24:14;5.27;;;2.27;;
44026;SDS011;29696;55.698;37.460;2023-02-15T09:26:44;4.30;;;2.47;;
44026;SDS011;29696;55.698;37.460;2023-02-15T09:29:13;4.63;;;2.47;;
44026;SDS011;29696;55.698;37.460;2023-02-15T09:31:42;6.57;;;2.57;;
44026;SDS011;29696;55.698;37.460;2023-02-15T09:34:12;5.23;;;2.77;;
44026;SDS011;29696;55.698;37.460;2023-02-15T09:36:41;3.77;;;2.37;;
44026;SDS011;29696;55.698;37.460;2023-02-15T09:48:36;5.47;;;2.53;;
44026;SDS011;29696;55.698;37.460;2023-02-15T09:54:16;2.67;;;2.30;;
44026;SDS011;29696;55.698;37.460;2023-02-15T09:56:57;6.73;;;2.37;;
44026;SDS011;29696;55.698;37.460;2023-02-15T10:00:30;2.37;;;2.10;;
44026;SDS011;29696;55.698;37.460;2023-02-15T10:05:52;4.83;;;3.30;;
44026;SDS011;29696;55.698;37.460;2023-02-15T10:25:28;2.33;;;1.93;;
44026;SDS011;29696;55.698;37.460;2023-02-15T10:28:19;4.97;;;2.23;;
44026;SDS011;29696;55.698;37.460;2023-02-15T10:30:50;8.20;;;3.33;;
44026;SDS011;29696;55.698;37.460;2023-02-15T10:43:03;2.93;;;1.90;;
44026;SDS011;29696;55.698;37.460;2023-02-15T10:52:14;3.43;;;2.17;;
44026;SDS011;29696;55.698;37.460;2023-02-15T10:55:18;5.70;;;3.00;;
44026;SDS011;29696;55.698;37.460;2023-02-15T11:01:29;3.87;;;1.93;;
44026;SDS011;29696;55.698;37.460;2023-02-15T11:07:23;4.07;;;2.93;;
44026;SDS011;29696;55.698;37.460;2023-02-15T11:13:20;4.23;;;2.30;;
44026;SDS011;29696;55.698;37.460;2023-02-15T11:15:51;3.33;;;2.27;;
44026;SDS011;29696;55.698;37.460;2023-02-15T11:18:29;3.73;;;2.43;;
44026;SDS011;29696;55.698;37.460;2023-02-15T11:24:40;4.30;;;2.57;;
44026;SDS011;29696;55.698;37.460;2023-02-15T11:30:13;4.70;;;2.63;;
44026;SDS011;29696;55.698;37.460;2023-02-15T11:32:43;4.82;;;2.67;;
44026;SDS011;29696;55.698;37.460;2023-02-15T11:38:21;2.65;;;2.08;;
44026;SDS011;29696;55.698;37.460;2023-02-15T11:40:55;4.63;;;2.30;;
44026;SDS011;29696;55.698;37.460;2023-02-15T11:46:31;4.90;;;2.30;;
44026;SDS011;29696;55.698;37.460;2023-02-15T11:48:57;6.80;;;2.67;;
44026;SDS011;29696;55.698;37.460;2023-02-15T11:51:24;3.13;;;2.50;;
44026;SDS011;29696;55.698;37.460;2023-02-15T11:53:54;3.37;;;2.00;;
44026;SDS011;29696;55.698;37.460;2023-02-15T11:56:22;6.13;;;2.93;;
44026;SDS011;29696;55.698;37.460;2023-02-15T11:58:52;3.63;;;2.37;;
44026;SDS011;29696;55.698;37.460;2023-02-15T12:04:20;4.83;;;2.27;;
44026;SDS011;29696;55.698;37.460;2023-02-15T12:10:13;3.13;;;2.20;;
44026;SDS011;29696;55.698;37.460;2023-02-15T12:12:48;8.70;;;2.47;;
44026;SDS011;29696;55.698;37.460;2023-02-15T12:15:33;4.77;;;1.73;;
44026;SDS011;29696;55.698;37.460;2023-02-15T12:18:01;2.80;;;2.10;;
44026;SDS011;29696;55.698;37.460;2023-02-15T12:20:29;2.83;;;1.83;;
44026;SDS011;29696;55.698;37.460;2023-02-15T12:23:01;5.37;;;2.83;;
44026;SDS011;29696;55.698;37.460;2023-02-15T12:25:37;2.10;;;1.90;;
44026;SDS011;29696;55.698;37.460;2023-02-15T12:31:09;3.80;;;2.27;;
44026;SDS011;29696;55.698;37.460;2023-02-15T12:33:53;1.70;;;1.60;;
44026;SDS011;29696;55.698;37.460;2023-02-15T12:36:25;4.90;;;2.07;;
44026;SDS011;29696;55.698;37.460;2023-02-15T12:39:15;2.13;;;1.63;;
44026;SDS011;29696;55.698;37.460;2023-02-15T12:44:53;1.40;;;1.20;;
44026;SDS011;29696;55.698;37.460;2023-02-15T12:47:45;7.10;;;1.90;;
44026;SDS011;29696;55.698;37.460;2023-02-15T12:50:13;2.10;;;1.80;;
44026;SDS011;29696;55.698;37.460;2023-02-15T12:52:48;1.73;;;1.50;;
44026;SDS011;29696;55.698;37.460;2023-02-15T12:58:18;2.07;;;1.60;;
44026;SDS011;29696;55.698;37.460;2023-02-15T13:00:48;2.90;;;1.60;;
44026;SDS011;29696;55.698;37.460;2023-02-15T13:03:27;3.40;;;1.70;;
44026;SDS011;29696;55.698;37.460;2023-02-15T13:05:54;1.23;;;1.10;;
44026;SDS011;29696;55.698;37.460;2023-02-15T13:08:27;2.20;;;1.70;;
44026;SDS011;29696;55.698;37.460;2023-02-15T13:11:03;7.25;;;1.95;;
44026;SDS011;29696;55.698;37.460;2023-02-15T13:17:03;1.57;;;1.47;;
44026;SDS011;29696;55.698;37.460;2023-02-15T13:19:33;1.90;;;1.40;;
44026;SDS011;29696;55.698;37.460;2023-02-15T13:22:05;1.87;;;1.30;;
44026;SDS011;29696;55.698;37.460;2023-02-15T13:24:37;1.37;;;1.27;;
44026;SDS011;29696;55.698;37.460;2023-02-15T13:27:13;3.13;;;1.30;;
44026;SDS011;29696;55.698;37.460;2023-02-15T13:29:53;4.17;;;1.40;;
44026;SDS011;29696;55.698;37.460;2023-02-15T13:32:32;1.67;;;1.30;;
44026;SDS011;29696;55.698;37.460;2023-02-15T13:35:03;3.47;;;1.40;;
44026;SDS011;29696;55.698;37.460;2023-02-15T13:37:45;1.60;;;1.30;;
44026;SDS011;29696;55.698;37.460;2023-02-15T13:41:03;1.10;;;1.00;;
44026;SDS011;29696;55.698;37.460;2023-02-15T13:46:56;1.37;;;1.23;;
44026;SDS011;29696;55.698;37.460;2023-02-15T14:26:03;4.03;;;1.47;;
44026;SDS011;29696;55.698;37.460;2023-02-15T14:32:13;3.93;;;1.63;;
44026;SDS011;29696;55.698;37.460;2023-02-15T14:34:48;3.20;;;2.00;;
44026;SDS011;29696;55.698;37.460;2023-02-15T14:37:23;2.10;;;1.37;;
44026;SDS011;29696;55.698;37.460;2023-02-15T14:40:27;2.90;;;1.63;;
44026;SDS011;29696;55.698;37.460;2023-02-15T14:46:48;2.00;;;1.80;;
44026;SDS011;29696;55.698;37.460;2023-02-15T14:49:31;1.30;;;1.20;;
44026;SDS011;29696;55.698;37.460;2023-02-15T14:52:07;1.73;;;1.60;;
44026;SDS011;29696;55.698;37.460;2023-02-15T14:57:25;1.33;;;1.20;;
44026;SDS011;29696;55.698;37.460;2023-02-15T15:02:56;1.53;;;1.43;;
44026;SDS011;29696;55.698;37.460;2023-02-15T15:08:21;3.03;;;1.30;;
44026;SDS011;29696;55.698;37.460;2023-02-15T15:14:03;1.33;;;1.30;;
44026;SDS011;29696;55.698;37.460;2023-02-15T15:16:31;3.13;;;1.43;;
44026;SDS011;29696;55.698;37.460;2023-02-15T15:19:13;1.47;;;1.20;;
44026;SDS011;29696;55.698;37.460;2023-02-15T15:22:33;1.47;;;1.37;;
44026;SDS011;29696;55.698;37.460;2023-02-15T15:25:11;3.60;;;1.80;;
44026;SDS011;29696;55.698;37.460;2023-02-15T15:27:56;2.25;;;1.27;;
44026;SDS011;29696;55.698;37.460;2023-02-15T15:33:40;1.87;;;1.67;;
44026;SDS011;29696;55.698;37.460;2023-02-15T15:42:51;1.57;;;1.03;;
44026;SDS011;29696;55.698;37.460;2023-02-15T15:48:37;1.43;;;1.33;;
44026;SDS011;29696;55.698;37.460;2023-02-15T15:51:19;2.20;;;1.70;;
44026;SDS011;29696;55.698;37.460;2023-02-15T15:53:49;2.20;;;1.53;;
44026;SDS011;29696;55.698;37.460;2023-02-15T15:56:19;0.90;;;0.90;;
44026;SDS011;29696;55.698;37.460;2023-02-15T15:58:51;1.60;;;1.40;;
44026;SDS011;29696;55.698;37.460;2023-02-15T16:01:42;2.13;;;1.30;;
44026;SDS011;29696;55.698;37.460;2023-02-15T16:04:28;2.00;;;1.67;;
44026;SDS011;29696;55.698;37.460;2023-02-15T16:06:57;2.87;;;2.03;;
44026;SDS011;29696;55.698;37.460;2023-02-15T16:12:19;1.87;;;1.63;;
44026;SDS011;29696;55.698;37.460;2023-02-15T16:14:46;5.93;;;1.27;;
44026;SDS011;29696;55.698;37.460;2023-02-15T16:17:19;1.43;;;1.33;;
44026;SDS011;29696;55.698;37.460;2023-02-15T16:19:48;1.23;;;1.10;;
44026;SDS011;29696;55.698;37.460;2023-02-15T16:22:18;1.50;;;1.40;;
44026;SDS011;29696;55.698;37.460;2023-02-15T16:27:46;1.30;;;1.20;;
44026;SDS011;29696;55.698;37.460;2023-02-15T16:33:09;1.23;;;1.10;;
44026;SDS011;29696;55.698;37.460;2023-02-15T16:35:55;1.63;;;1.53;;
44026;SDS011;29696;55.698;37.460;2023-02-15T16:38:28;1.67;;;1.53;;
44026;SDS011;29696;55.698;37.460;2023-02-15T16:41:25;1.87;;;1.67;;
44026;SDS011;29696;55.698;37.460;2023-02-15T16:43:53;1.50;;;1.20;;
44026;SDS011;29696;55.698;37.460;2023-02-15T16:49:19;3.90;;;1.37;;
44026;SDS011;29696;55.698;37.460;2023-02-15T16:54:48;1.00;;;1.00;;
44026;SDS011;29696;55.698;37.460;2023-02-15T16:57:20;2.30;;;1.70;;
44026;SDS011;29696;55.698;37.460;2023-02-15T16:59:52;1.53;;;1.43;;
44026;SDS011;29696;55.698;37.460;2023-02-15T17:02:25;1.10;;;1.10;;
44026;SDS011;29696;55.698;37.460;2023-02-15T17:05:04;1.47;;;1.37;;
44026;SDS011;29696;55.698;37.460;2023-02-15T17:08:14;1.63;;;1.10;;
44026;SDS011;29696;55.698;37.460;2023-02-15T17:11:08;1.67;;;1.23;;
44026;SDS011;29696;55.698;37.460;2023-02-15T17:17:01;2.63;;;1.67;;
44026;SDS011;29696;55.698;37.460;2023-02-15T17:19:33;2.23;;;1.60;;
44026;SDS011;29696;55.698;37.460;2023-02-15T17:22:18;2.03;;;1.38;;
44026;SDS011;29696;55.698;37.460;2023-02-15T17:24:47;1.73;;;1.33;;
44026;SDS011;29696;55.698;37.460;2023-02-15T17:30:14;1.60;;;1.50;;
44026;SDS011;29696;55.698;37.460;2023-02-15T17:32:53;1.67;;;1.50;;
44026;SDS011;29696;55.698;37.460;2023-02-15T17:35:22;4.00;;;1.70;;
44026;SDS011;29696;55.698;37.460;2023-02-15T17:37:59;2.07;;;1.37;;
44026;SDS011;29696;55.698;37.460;2023-02-15T17:40:46;1.63;;;1.30;;
44026;SDS011;29696;55.698;37.460;2023-02-15T17:43:13;5.23;;;1.97;;
44026;SDS011;29696;55.698;37.460;2023-02-15T17:45:48;1.77;;;1.57;;
44026;SDS011;29696;55.698;37.460;2023-02-15T17:51:11;2.07;;;1.70;;
44026;SDS011;29696;55.698;37.460;2023-02-15T17:53:38;1.10;;;1.10;;
44026;SDS011;29696;55.698;37.460;2023-02-15T17:56:05;1.27;;;1.17;;
44026;SDS011;29696;55.698;37.460;2023-02-15T17:58:38;1.40;;;1.30;;
44026;SDS011;29696;55.698;37.460;2023-02-15T18:01:10;2.10;;;1.30;;
44026;SDS011;29696;55.698;37.460;2023-02-15T18:04:00;1.10;;;1.10;;
44026;SDS011;29696;55.698;37.460;2023-02-15T18:06:45;2.75;;;1.40;;
44026;SDS011;29696;55.698;37.460;2023-02-15T18:09:30;1.30;;;1.20;;
44026;SDS011;29696;55.698;37.460;2023-02-15T18:12:18;3.65;;;1.90;;
44026;SDS011;29696;55.698;37.460;2023-02-15T18:14:50;1.40;;;1.27;;
44026;SDS011;29696;55.698;37.460;2023-02-15T18:17:20;2.23;;;2.03;;
44026;SDS011;29696;55.698;37.460;2023-02-15T18:19:49;1.87;;;1.43;;
44026;SDS011;29696;55.698;37.460;2023-02-15T18:22:17;1.53;;;1.20;;
44026;SDS011;29696;55.698;37.460;2023-02-15T18:24:45;1.37;;;1.27;;
44026;SDS011;29696;55.698;37.460;2023-02-15T18:27:13;2.13;;;1.63;;
44026;SDS011;29696;55.698;37.460;2023-02-15T18:29:40;1.13;;;1.03;;
44026;SDS011;29696;55.698;37.460;2023-02-15T18:32:12;1.13;;;1.03;;
44026;SDS011;29696;55.698;37.460;2023-02-15T18:34:42;1.20;;;1.10;;
44026;SDS011;29696;55.698;37.460;2023-02-15T18:37:11;1.43;;;1.30;;
44026;SDS011;29696;55.698;37.460;2023-02-15T18:39:41;1.60;;;1.03;;
44026;SDS011;29696;55.698;37.460;2023-02-15T18:42:21;1.33;;;1.10;;
44026;SDS011;29696;55.698;37.460;2023-02-15T18:44:56;2.70;;;1.57;;
44026;SDS011;29696;55.698;37.460;2023-02-15T18:47:25;1.10;;;1.10;;
44026;SDS011;29696;55.698;37.460;2023-02-15T18:49:52;1.27;;;1.10;;
44026;SDS011;29696;55.698;37.460;2023-02-15T18:52:22;1.27;;;1.10;;